Winkler, Canada
Current Conditions -  °F | °C
As of 12:55 AM on Monday 22 Dec 2014 (Local Time) from K2C8 Reporting Station
Haze Haze  
Wind Chill: 26°   Ceiling: 500
Heat Index: 32°   Visibility: 3mi
Dew Point: 32°   Wind: 6mph
Humidity: 100%   Direction: 160°SSE
Pressure: 29.57"   Gusts: NA
Location:  49.18°N, 97.93°W
Report Text: K2C8 220655Z AUTO 16005KT 3SM BR OVC005 00/00 A2957 RMK AO2
Loading
Personal Weather Stations






























Interactive Weather Map New forecast layout! Learn more

10-Day Weather Forecast

Advertisements
Track Severe Weather on mobile